Time;durP1;ratioP1;P1;durP2;ratioP2;P2;SDS_P1;SDS_P2;PMS_P1;PMS_P2;Temp;Humidity;BMP_temperature;BMP_pressure;BME280_temperature;BME280_humidity;BME280_pressure;Samples;Min_cycle;Max_cycle;Signal;HPM_P1;HPM_P2
2022/06/26 00:02:16;;;;;;;10.63;5.43;;;21.50;99.90;;;;;;5030739;28;20472;-76
2022/06/26 00:04:44;;;;;;;10.90;5.82;;;21.40;99.90;;;;;;5012925;28;20421;-76
2022/06/26 00:07:11;;;;;;;10.50;5.60;;;21.30;99.90;;;;;;5013128;28;20041;-76
2022/06/26 00:09:38;;;;;;;5.95;5.28;;;21.30;99.90;;;;;;5029501;28;20390;-76
2022/06/26 00:12:06;;;;;;;11.65;6.35;;;21.30;99.90;;;;;;5029379;28;20103;-76
2022/06/26 00:14:34;;;;;;;10.45;6.00;;;21.20;99.90;;;;;;5030838;28;20115;-75
2022/06/26 00:17:03;;;;;;;8.00;5.10;;;21.20;99.90;;;;;;5030726;28;20061;-75
2022/06/26 00:19:30;;;;;;;10.15;5.90;;;21.20;99.90;;;;;;5030897;28;20071;-76
2022/06/26 00:21:57;;;;;;;11.00;5.47;;;21.20;99.90;;;;;;5029307;28;20093;-76
2022/06/26 00:24:25;;;;;;;13.20;5.78;;;21.10;99.90;;;;;;5030871;28;20056;-76
2022/06/26 00:26:53;;;;;;;18.88;6.65;;;21.10;99.90;;;;;;5030403;28;20148;-76
2022/06/26 00:29:20;;;;;;;13.10;5.82;;;21.00;99.90;;;;;;5012635;28;20053;-76
2022/06/26 00:31:48;;;;;;;11.07;6.20;;;21.00;99.90;;;;;;5012740;28;20049;-76
2022/06/26 00:34:16;;;;;;;16.42;5.82;;;21.00;99.90;;;;;;5032695;28;20053;-76
2022/06/26 00:36:44;;;;;;;11.82;5.45;;;20.90;99.90;;;;;;5034025;28;20045;-76
2022/06/26 00:39:11;;;;;;;12.43;5.35;;;20.90;99.90;;;;;;5016522;28;20045;-76
2022/06/26 00:41:39;;;;;;;16.65;5.78;;;20.90;99.90;;;;;;5032712;28;20054;-76
2022/06/26 00:44:15;;;;;;;14.35;6.28;;;20.80;99.90;;;;;;5032859;28;20053;-76
2022/06/26 00:46:42;;;;;;;12.82;5.75;;;20.80;99.90;;;;;;5032703;28;20045;-76
2022/06/26 00:49:10;;;;;;;11.63;5.85;;;20.80;99.90;;;;;;5033762;28;20104;-76
2022/06/26 00:51:41;;;;;;;19.63;6.50;;;20.80;99.90;;;;;;5032888;28;20563;-76
2022/06/26 00:54:09;;;;;;;19.80;7.22;;;20.70;99.90;;;;;;5032734;28;20143;-76
2022/06/26 00:56:36;;;;;;;15.52;6.53;;;20.70;99.90;;;;;;5033882;28;20429;-76
2022/06/26 00:59:05;;;;;;;19.70;6.15;;;20.70;99.90;;;;;;5016235;28;20084;-76
2022/06/26 01:01:34;;;;;;;18.20;6.75;;;20.60;99.90;;;;;;5033632;28;20468;-76
2022/06/26 01:04:01;;;;;;;20.73;6.93;;;20.60;99.90;;;;;;5015981;28;20041;-76
2022/06/26 01:06:29;;;;;;;18.70;6.93;;;20.60;99.90;;;;;;5033624;28;20057;-76
2022/06/26 01:08:58;;;;;;;13.93;6.68;;;20.60;99.90;;;;;;5015887;28;20468;-76
2022/06/26 01:11:26;;;;;;;19.92;7.00;;;20.60;99.90;;;;;;5015718;28;20103;-76
2022/06/26 01:13:56;;;;;;;19.00;7.80;;;20.50;99.90;;;;;;5015917;28;20046;-76
2022/06/26 01:16:25;;;;;;;27.42;7.22;;;20.50;99.90;;;;;;5032209;28;20552;-76
2022/06/26 01:18:55;;;;;;;22.15;7.97;;;20.50;99.90;;;;;;5033482;28;20057;-76
2022/06/26 01:21:24;;;;;;;15.07;7.22;;;20.40;99.90;;;;;;5033278;28;20038;-76
2022/06/26 01:23:54;;;;;;;15.75;7.30;;;20.40;99.90;;;;;;5032090;28;20474;-76
2022/06/26 01:26:23;;;;;;;15.27;7.60;;;20.40;99.90;;;;;;5031985;28;20057;-77
2022/06/26 01:28:51;;;;;;;17.83;7.32;;;20.40;99.90;;;;;;5031908;28;20050;-76
2022/06/26 01:31:20;;;;;;;20.65;7.45;;;20.40;99.90;;;;;;5015482;28;20057;-76
2022/06/26 01:33:47;;;;;;;20.70;7.07;;;20.40;99.90;;;;;;5032184;28;20513;-76
2022/06/26 01:36:15;;;;;;;15.88;7.93;;;20.40;99.90;;;;;;5033090;28;20055;-76
2022/06/26 01:38:43;;;;;;;16.63;7.70;;;20.40;99.90;;;;;;5031788;28;20525;-76
2022/06/26 01:41:11;;;;;;;16.60;7.50;;;20.40;99.90;;;;;;5033078;28;20076;-76
2022/06/26 01:43:40;;;;;;;21.30;7.38;;;20.30;99.90;;;;;;5014784;28;20057;-76
2022/06/26 01:46:08;;;;;;;15.90;6.80;;;20.30;99.90;;;;;;5032590;28;20144;-76
2022/06/26 01:48:39;;;;;;;21.05;7.55;;;20.30;99.90;;;;;;5031752;28;20065;-76
2022/06/26 01:51:09;;;;;;;18.65;7.25;;;20.30;99.90;;;;;;5031695;28;20057;-76
2022/06/26 01:53:38;;;;;;;16.75;7.95;;;20.30;99.90;;;;;;5031897;28;20061;-76
2022/06/26 01:56:06;;;;;;;19.92;7.70;;;20.30;99.90;;;;;;5031580;28;20092;-77
2022/06/26 01:58:39;;;;;;;18.20;7.82;;;20.30;99.90;;;;;;5015256;28;20418;-76
2022/06/26 02:01:08;;;;;;;21.55;8.25;;;20.30;99.90;;;;;;5031504;28;20517;-76
2022/06/26 02:03:36;;;;;;;24.52;7.47;;;20.30;99.90;;;;;;5014902;28;20049;-77
2022/06/26 02:06:03;;;;;;;21.90;7.95;;;20.30;99.90;;;;;;5031418;28;20083;-76
2022/06/26 02:08:32;;;;;;;20.38;8.27;;;20.30;99.90;;;;;;5014768;28;20066;-76
2022/06/26 02:13:47;;;;;;;30.50;8.63;;;20.30;99.90;;;;;;5031110;28;20057;-77
2022/06/26 02:16:17;;;;;;;20.75;8.13;;;20.30;99.90;;;;;;5014629;28;20049;-76
2022/06/26 02:18:46;;;;;;;26.90;8.10;;;20.30;99.90;;;;;;5014748;28;20056;-76
2022/06/26 02:21:17;;;;;;;29.42;8.40;;;20.30;99.90;;;;;;5014422;28;20056;-77
2022/06/26 02:23:46;;;;;;;24.45;7.55;;;20.30;99.90;;;;;;5032809;28;20060;-78
2022/06/26 02:26:14;;;;;;;21.58;8.73;;;20.30;99.90;;;;;;5031120;28;20054;-78
2022/06/26 02:28:42;;;;;;;27.15;8.60;;;20.30;99.90;;;;;;5014275;28;20076;-77
2022/06/26 02:31:11;;;;;;;22.35;8.95;;;20.30;99.90;;;;;;5032147;28;20072;-78
2022/06/26 02:33:39;;;;;;;23.17;8.40;;;20.30;99.90;;;;;;5032120;28;20049;-78
2022/06/26 02:36:08;;;;;;;18.75;8.43;;;20.30;99.90;;;;;;5030805;28;20056;-78
2022/06/26 02:38:37;;;;;;;21.05;8.23;;;20.30;99.90;;;;;;5014269;28;20056;-78
2022/06/26 02:41:05;;;;;;;24.40;8.88;;;20.30;99.90;;;;;;5030704;28;20424;-78
2022/06/26 02:43:32;;;;;;;17.60;8.50;;;20.40;99.90;;;;;;5014232;28;20045;-77
2022/06/26 02:46:04;;;;;;;22.20;8.85;;;20.40;99.90;;;;;;5031672;28;20447;-77
2022/06/26 02:48:33;;;;;;;18.45;8.60;;;20.50;99.90;;;;;;5030578;28;20141;-76
2022/06/26 02:51:00;;;;;;;19.60;8.70;;;20.50;99.90;;;;;;5030591;28;20050;-77
2022/06/26 02:53:28;;;;;;;29.83;9.07;;;20.50;99.90;;;;;;5014398;28;20718;-77
2022/06/26 02:55:55;;;;;;;17.65;8.80;;;20.60;99.90;;;;;;5030335;28;20055;-77
2022/06/26 02:58:24;;;;;;;27.80;9.05;;;20.70;99.90;;;;;;5030386;28;20045;-76
2022/06/26 03:00:57;;;;;;;21.00;8.95;;;20.70;99.90;;;;;;5030301;28;20452;-77
2022/06/26 03:03:25;;;;;;;20.60;8.90;;;20.80;99.90;;;;;;5013761;28;20056;-77
2022/06/26 03:05:54;;;;;;;20.73;8.52;;;20.90;99.90;;;;;;5030290;28;20049;-77
2022/06/26 03:08:26;;;;;;;13.25;9.00;;;21.00;99.90;;;;;;5030337;28;20529;-77
2022/06/26 03:10:55;;;;;;;14.93;8.30;;;21.10;99.90;;;;;;5013523;28;20052;-77
2022/06/26 03:13:24;;;;;;;20.95;9.95;;;21.20;99.90;;;;;;5030497;28;20037;-77
2022/06/26 03:15:51;;;;;;;23.30;9.52;;;21.30;99.90;;;;;;5030200;28;20125;-77
2022/06/26 03:18:19;;;;;;;14.15;8.90;;;21.30;99.90;;;;;;5013640;28;20049;-77
2022/06/26 03:20:47;;;;;;;19.75;9.65;;;21.50;99.90;;;;;;5013145;28;20053;-77
2022/06/26 03:23:15;;;;;;;23.58;9.27;;;21.60;99.90;;;;;;5031281;28;20049;-77
2022/06/26 03:25:44;;;;;;;11.45;8.38;;;21.60;99.90;;;;;;5029962;28;20049;-77
2022/06/26 03:28:14;;;;;;;17.35;9.20;;;21.70;99.90;;;;;;5013558;28;20149;-77
2022/06/26 03:30:44;;;;;;;17.65;8.90;;;21.80;99.90;;;;;;5030105;28;20473;-77
2022/06/26 03:33:11;;;;;;;16.13;8.55;;;21.90;99.90;;;;;;5031330;28;20041;-77
2022/06/26 03:35:39;;;;;;;14.48;8.48;;;21.90;99.90;;;;;;5029895;28;20131;-77
2022/06/26 03:38:07;;;;;;;15.93;8.48;;;22.00;99.90;;;;;;5013115;28;20053;-77
2022/06/26 03:40:37;;;;;;;16.60;9.10;;;22.10;99.90;;;;;;5013306;28;20045;-77
2022/06/26 03:43:09;;;;;;;16.27;8.38;;;22.20;99.90;;;;;;5030783;28;20053;-77
2022/06/26 03:45:48;;;;;;;14.75;7.90;;;22.30;99.90;;;;;;5013084;28;20076;-78
2022/06/26 03:48:16;;;;;;;13.93;7.78;;;22.40;99.90;;;;;;5013127;28;20053;-77
2022/06/26 03:50:43;;;;;;;13.15;7.78;;;22.40;99.90;;;;;;5029535;28;20041;-77
2022/06/26 03:53:11;;;;;;;14.20;8.23;;;22.50;99.90;;;;;;5013013;28;20053;-77
2022/06/26 03:55:40;;;;;;;14.70;8.77;;;22.50;99.90;;;;;;5029416;28;20133;-77
2022/06/26 03:58:09;;;;;;;14.95;7.40;;;22.60;99.90;;;;;;5029307;28;20533;-77
2022/06/26 04:00:37;;;;;;;10.73;7.97;;;22.70;99.90;;;;;;5029506;28;20049;-77
2022/06/26 04:03:09;;;;;;;12.52;8.30;;;22.80;99.90;;;;;;5012825;28;20215;-77
2022/06/26 04:05:38;;;;;;;11.48;6.95;;;22.80;99.90;;;;;;5029924;28;20073;-77
2022/06/26 04:08:06;;;;;;;12.38;7.32;;;22.90;99.90;;;;;;5031220;28;20132;-77
2022/06/26 04:10:40;;;;;;;13.13;7.45;;;23.00;99.90;;;;;;5017125;28;20517;-77
2022/06/26 04:13:24;;;;;;;13.00;6.70;;;23.10;99.90;;;;;;5032916;28;20048;-77
2022/06/26 04:15:51;;;;;;;14.75;7.40;;;23.20;99.90;;;;;;5034639;28;20537;-78
2022/06/26 04:18:18;;;;;;;10.43;6.57;;;23.30;99.90;;;;;;5033428;28;20046;-77
2022/06/26 04:20:46;;;;;;;9.45;6.80;;;23.40;99.90;;;;;;5034447;28;20059;-78
2022/06/26 04:23:13;;;;;;;10.75;6.47;;;23.50;99.90;;;;;;5033166;28;20425;-78
2022/06/26 04:25:44;;;;;;;6.95;6.15;;;23.60;99.90;;;;;;5016618;28;20053;-78
2022/06/26 04:28:12;;;;;;;7.22;6.05;;;23.70;99.90;;;;;;5033225;28;20052;-78
2022/06/26 04:30:45;;;;;;;10.93;6.13;;;23.70;99.90;;;;;;5016583;28;20049;-77
2022/06/26 04:33:12;;;;;;;12.05;6.15;;;23.80;99.90;;;;;;5033108;28;20053;-77
2022/06/26 04:35:40;;;;;;;9.60;6.30;;;23.90;99.90;;;;;;5016499;28;20041;-77
2022/06/26 04:38:09;;;;;;;9.13;5.70;;;24.00;99.90;;;;;;5032811;28;20544;-78
2022/06/26 04:40:36;;;;;;;6.20;5.68;;;24.00;99.90;;;;;;5033041;28;20085;-76
2022/06/26 04:43:04;;;;;;;7.32;5.70;;;24.10;99.90;;;;;;5016167;28;20052;-76
2022/06/26 04:45:32;;;;;;;7.85;6.28;;;24.20;99.90;;;;;;5034311;28;20049;-77
2022/06/26 04:48:00;;;;;;;9.90;6.55;;;24.30;99.90;;;;;;5032814;28;20045;-77
2022/06/26 04:50:28;;;;;;;10.02;6.68;;;24.30;99.90;;;;;;5034074;28;20049;-77
2022/06/26 04:52:56;;;;;;;9.90;7.10;;;24.40;99.90;;;;;;5032988;28;20056;-77
2022/06/26 04:55:29;;;;;;;9.98;6.70;;;24.50;99.90;;;;;;5016097;28;20045;-77
2022/06/26 04:57:56;;;;;;;8.95;6.53;;;24.60;99.90;;;;;;5032695;28;20529;-77
2022/06/26 05:00:25;;;;;;;6.60;5.75;;;24.70;99.90;;;;;;5032603;28;20041;-77
2022/06/26 05:02:56;;;;;;;9.07;6.22;;;24.70;99.90;;;;;;5033745;28;20056;-77
2022/06/26 05:05:46;;;;;;;6.95;5.72;;;24.80;99.90;;;;;;5031845;28;20058;-77
2022/06/26 05:08:33;;;;;;;11.63;6.55;;;24.90;99.90;;;;;;5032676;28;20060;-77
2022/06/26 05:11:00;;;;;;;6.60;5.70;;;24.90;99.90;;;;;;5032710;28;20049;-77
2022/06/26 05:13:30;;;;;;;8.82;7.32;;;25.00;99.90;;;;;;5032245;28;20144;-77
2022/06/26 05:16:31;;;;;;;11.90;5.97;;;25.00;99.90;;;;;;5043118;28;20140;-77
2022/06/26 05:19:01;;;;;;;6.25;5.50;;;25.10;99.90;;;;;;5031023;28;20049;-78
2022/06/26 05:21:30;;;;;;;8.80;5.57;;;25.30;99.90;;;;;;5015652;28;20060;-78
2022/06/26 05:23:58;;;;;;;7.60;5.63;;;25.40;99.90;;;;;;5015485;28;20077;-78
2022/06/26 05:26:27;;;;;;;8.27;5.72;;;25.60;99.90;;;;;;5015303;28;20050;-78
2022/06/26 05:28:56;;;;;;;6.32;4.88;;;25.70;99.90;;;;;;5015571;28;20139;-78
2022/06/26 05:31:23;;;;;;;8.90;5.90;;;25.80;99.90;;;;;;5015838;28;20049;-78
2022/06/26 05:33:52;;;;;;;6.78;5.75;;;26.00;99.90;;;;;;5032407;28;20092;-78
2022/06/26 05:36:20;;;;;;;6.45;5.85;;;26.10;99.90;;;;;;5032242;28;20053;-78
2022/06/26 05:38:48;;;;;;;6.50;5.05;;;26.30;99.90;;;;;;5032226;28;20058;-78
2022/06/26 05:41:15;;;;;;;5.38;4.93;;;26.40;99.90;;;;;;5031982;28;20532;-78
2022/06/26 05:43:44;;;;;;;7.78;4.38;;;26.60;99.90;;;;;;5015609;28;20532;-78
2022/06/26 05:46:12;;;;;;;7.65;4.85;;;27.00;99.90;;;;;;5031835;28;20509;-76
2022/06/26 05:49:03;;;;;;;4.75;4.03;;;27.40;99.90;;;;;;5031625;28;20053;-76
2022/06/26 05:51:43;;;;;;;6.87;5.00;;;28.00;99.60;;;;;;5031719;28;20049;-77
2022/06/26 05:54:34;;;;;;;5.95;4.00;;;28.60;95.70;;;;;;5032617;28;20056;-77
2022/06/26 05:57:33;;;;;;;5.18;4.00;;;29.00;94.40;;;;;;5031699;28;20528;-76
2022/06/26 06:00:24;;;;;;;7.30;4.55;;;29.60;92.10;;;;;;5015219;28;20069;-77
2022/06/26 06:02:55;;;;;;;5.85;4.10;;;30.00;90.50;;;;;;5031723;28;20059;-77
2022/06/26 06:05:25;;;;;;;4.55;4.22;;;30.40;87.40;;;;;;5031274;28;20053;-77
2022/06/26 06:07:53;;;;;;;8.23;4.07;;;30.80;83.60;;;;;;5014879;28;20140;-77
2022/06/26 06:10:21;;;;;;;6.65;4.32;;;31.20;81.10;;;;;;5031431;28;20489;-77
2022/06/26 06:12:49;;;;;;;6.30;4.22;;;31.60;78.70;;;;;;5031426;28;20053;-77
2022/06/26 06:15:17;;;;;;;8.15;4.88;;;32.00;74.90;;;;;;5032861;28;20053;-78
2022/06/26 06:17:48;;;;;;;7.28;4.40;;;32.50;71.90;;;;;;5031294;28;20052;-79
2022/06/26 06:20:18;;;;;;;6.35;4.55;;;32.70;70.20;;;;;;5033006;28;20049;-78
2022/06/26 06:22:51;;;;;;;5.38;4.15;;;33.10;68.90;;;;;;5030600;28;20513;-79
2022/06/26 06:25:19;;;;;;;;;;;33.30;68.20;;;;;;5033235;28;20063;-79
2022/06/26 06:27:48;;;;;;;5.05;4.65;;;33.50;66.40;;;;;;5031242;28;19924;-78
2022/06/26 06:30:19;;;;;;;8.50;4.15;;;33.70;66.40;;;;;;5030080;28;20077;-80
2022/06/26 06:32:49;;;;;;;7.13;4.43;;;33.90;62.80;;;;;;5022411;28;20041;-78
2022/06/26 06:35:36;;;;;;;9.20;4.38;;;34.20;62.80;;;;;;5032046;28;20065;-78
2022/06/26 06:38:08;;;;;;;6.82;4.70;;;34.50;61.90;;;;;;5030610;28;20552;-78
2022/06/26 06:40:36;;;;;;;13.07;4.32;;;34.80;61.20;;;;;;5030602;28;20052;-77
2022/06/26 06:43:04;;;;;;;9.00;4.20;;;34.90;61.50;;;;;;5030794;28;20045;-77
2022/06/26 06:45:51;;;;;;;6.25;4.15;;;35.20;59.70;;;;;;5031556;28;20057;-78
2022/06/26 06:48:20;;;;;;;8.93;5.05;;;35.50;59.30;;;;;;5030701;28;20049;-79
2022/06/26 06:51:06;;;;;;;5.75;3.80;;;35.70;57.80;;;;;;5031950;28;20049;-78
2022/06/26 06:53:35;;;;;;;7.70;4.43;;;35.80;57.00;;;;;;5013261;28;20145;-78
2022/06/26 06:56:03;;;;;;;5.93;4.22;;;36.10;56.40;;;;;;5018256;28;20058;-78
2022/06/26 06:58:30;;;;;;;7.20;4.20;;;36.40;56.20;;;;;;5013743;28;20049;-77
2022/06/26 07:00:57;;;;;;;5.78;4.20;;;36.50;56.20;;;;;;5013700;28;20046;-78
2022/06/26 07:03:25;;;;;;;6.43;4.45;;;36.60;55.60;;;;;;5030444;28;20073;-78
2022/06/26 07:05:52;;;;;;;8.45;4.18;;;36.70;57.00;;;;;;5031641;28;20072;-79
2022/06/26 07:08:19;;;;;;;6.45;4.10;;;36.90;54.50;;;;;;5030099;28;20053;-78
2022/06/26 07:10:48;;;;;;;4.97;4.18;;;37.10;54.10;;;;;;5030222;28;20057;-77
2022/06/26 07:13:18;;;;;;;6.63;4.13;;;37.30;54.10;;;;;;5030060;28;20073;-77
2022/06/26 07:15:46;;;;;;;4.65;4.25;;;37.50;53.50;;;;;;5029796;28;20077;-79
2022/06/26 07:18:13;;;;;;;8.48;3.92;;;37.70;54.30;;;;;;5031536;28;20089;-78
2022/06/26 07:20:41;;;;;;;6.55;4.18;;;37.90;52.80;;;;;;5029780;28;20056;-78
2022/06/26 07:23:09;;;;;;;5.95;4.35;;;38.20;52.60;;;;;;5013507;28;20092;-77
2022/06/26 07:25:47;;;;;;;7.15;4.63;;;38.30;51.80;;;;;;5029959;28;20107;-79
2022/06/26 07:28:16;;;;;;;6.35;3.70;;;38.50;51.50;;;;;;5030263;28;20067;-79
2022/06/26 07:30:43;;;;;;;9.88;4.22;;;38.70;52.60;;;;;;5018919;28;20120;-77
2022/06/26 07:35:52;;;;;;;4.18;3.88;;;38.80;51.70;;;;;;5030764;28;20056;-78
2022/06/26 07:38:19;;;;;;;8.13;3.75;;;38.90;51.60;;;;;;5029800;28;20037;-77
2022/06/26 07:40:51;;;;;;;7.45;4.38;;;39.00;51.60;;;;;;5022620;28;20148;-77
2022/06/26 07:43:21;;;;;;;7.78;3.70;;;39.00;51.20;;;;;;5009181;28;20050;-77
2022/06/26 07:45:49;;;;;;;7.82;5.05;;;39.00;50.40;;;;;;4995843;28;20119;-78
2022/06/26 07:48:17;;;;;;;10.27;4.50;;;39.00;51.60;;;;;;5020108;28;20073;-78
2022/06/26 07:50:45;;;;;;;6.82;4.20;;;39.10;50.90;;;;;;5028671;28;20049;-78
2022/06/26 07:53:13;;;;;;;6.40;4.47;;;39.30;49.80;;;;;;5020782;28;20056;-78
2022/06/26 07:55:41;;;;;;;9.65;4.22;;;39.40;49.50;;;;;;5030860;28;20046;-78
2022/06/26 07:58:09;;;;;;;7.15;4.32;;;39.60;48.90;;;;;;5030635;28;20107;-77
2022/06/26 08:00:37;;;;;;;4.85;3.83;;;39.70;49.10;;;;;;5030363;28;20136;-78
2022/06/26 08:03:05;;;;;;;8.02;4.55;;;39.70;49.00;;;;;;5026617;28;20313;-78
2022/06/26 08:05:33;;;;;;;5.57;4.18;;;39.90;48.90;;;;;;5010871;28;20054;-79
2022/06/26 08:08:00;;;;;;;8.43;4.50;;;40.10;49.00;;;;;;5009732;28;20050;-79
2022/06/26 08:10:28;;;;;;;6.88;3.85;;;40.20;48.60;;;;;;5009574;28;20061;-81
2022/06/26 08:12:56;;;;;;;6.93;4.32;;;40.30;48.30;;;;;;5009573;28;20108;-79
2022/06/26 08:15:25;;;;;;;5.13;4.28;;;40.40;48.10;;;;;;5011164;28;20128;-77
2022/06/26 08:17:54;;;;;;;7.72;5.63;;;40.50;48.20;;;;;;5009247;28;20049;-78
2022/06/26 08:20:22;;;;;;;9.23;3.80;;;40.60;47.90;;;;;;5009554;28;20096;-77
2022/06/26 08:22:49;;;;;;;4.55;4.07;;;40.90;46.80;;;;;;5010768;28;20052;-78
2022/06/26 08:25:17;;;;;;;4.50;4.00;;;41.10;47.00;;;;;;5008987;28;20057;-78
2022/06/26 08:27:44;;;;;;;9.73;4.18;;;41.20;47.60;;;;;;5010838;28;20050;-82
2022/06/26 08:30:13;;;;;;;8.15;4.47;;;41.20;47.80;;;;;;5009515;28;20041;-81
2022/06/26 08:32:43;;;;;;;8.35;5.20;;;41.10;47.50;;;;;;5010503;28;20057;-80
2022/06/26 08:35:11;;;;;;;10.57;4.25;;;41.20;47.00;;;;;;5010892;28;20169;-80
2022/06/26 08:37:39;;;;;;;7.40;4.45;;;41.30;47.10;;;;;;5015683;28;20064;-80
2022/06/26 08:40:08;;;;;;;8.73;5.43;;;41.50;47.00;;;;;;5018730;28;20428;-80
2022/06/26 08:42:38;;;;;;;7.25;5.60;;;41.60;46.80;;;;;;5020064;28;20140;-80
2022/06/26 08:45:07;;;;;;;9.27;4.50;;;41.50;46.60;;;;;;5017801;28;20147;-81
2022/06/26 08:47:39;;;;;;;7.72;4.85;;;41.60;47.20;;;;;;5010619;28;20046;-81
2022/06/26 08:50:12;;;;;;;7.43;5.07;;;41.60;46.40;;;;;;5018749;28;20129;-81
2022/06/26 08:52:41;;;;;;;4.90;4.47;;;41.60;46.30;;;;;;5022597;28;20053;-81
2022/06/26 08:55:09;;;;;;;5.03;4.63;;;41.70;47.60;;;;;;5019586;28;20054;-79
2022/06/26 08:57:38;;;;;;;6.20;4.85;;;41.90;48.10;;;;;;5021020;28;20042;-79
2022/06/26 09:00:09;;;;;;;11.73;6.37;;;41.90;46.70;;;;;;5021190;28;20065;-79
2022/06/26 09:02:36;;;;;;;6.15;5.28;;;42.00;46.40;;;;;;5023195;28;20291;-81
2022/06/26 09:05:03;;;;;;;7.50;4.90;;;42.10;46.30;;;;;;5020004;28;20425;-80
2022/06/26 09:07:32;;;;;;;7.05;5.00;;;42.10;46.20;;;;;;5004176;28;20060;-78
2022/06/26 09:10:10;;;;;;;5.97;4.57;;;42.30;46.70;;;;;;5008065;28;20041;-79
2022/06/26 09:12:38;;;;;;;6.63;4.35;;;42.50;46.50;;;;;;5031438;28;20057;-78
2022/06/26 09:15:05;;;;;;;7.32;5.13;;;42.60;46.30;;;;;;5033392;28;20516;-78
2022/06/26 09:17:33;;;;;;;6.47;5.07;;;42.60;46.40;;;;;;5033419;28;20045;-78
2022/06/26 09:20:00;;;;;;;5.32;4.82;;;42.70;46.50;;;;;;5032101;28;20045;-81
2022/06/26 09:22:27;;;;;;;6.88;4.75;;;42.80;45.30;;;;;;5032005;28;20061;-80
2022/06/26 09:25:00;;;;;;;10.68;4.65;;;43.00;46.20;;;;;;5033474;28;20088;-81
2022/06/26 09:27:28;;;;;;;9.35;5.07;;;43.00;45.60;;;;;;5029198;28;20062;-80
2022/06/26 09:29:56;;;;;;;7.78;4.82;;;43.00;45.40;;;;;;5015947;28;20081;-80
2022/06/26 09:32:27;;;;;;;8.23;4.93;;;42.90;45.80;;;;;;4997997;28;20140;-78
2022/06/26 09:35:01;;;;;;;8.45;4.88;;;43.00;45.90;;;;;;5028430;28;20140;-78
2022/06/26 09:37:36;;;;;;;5.85;4.90;;;43.10;46.00;;;;;;5020525;28;20054;-79
2022/06/26 09:40:08;;;;;;;10.70;5.35;;;43.20;45.40;;;;;;5004128;28;20081;-79
2022/06/26 09:42:38;;;;;;;5.78;4.90;;;43.30;45.00;;;;;;5012663;28;20050;-78
2022/06/26 09:45:10;;;;;;;6.10;5.05;;;43.40;45.00;;;;;;5020853;28;20549;-78
2022/06/26 09:47:39;;;;;;;6.22;5.32;;;43.50;45.10;;;;;;5025572;28;20429;-79
2022/06/26 09:50:12;;;;;;;9.02;4.68;;;43.60;44.80;;;;;;5022583;28;20045;-80
2022/06/26 09:52:52;;;;;;;8.25;5.50;;;43.70;44.00;;;;;;5032134;28;20064;-79
2022/06/26 09:55:21;;;;;;;8.63;5.18;;;43.70;44.30;;;;;;5028703;28;20081;-80
2022/06/26 09:58:01;;;;;;;8.65;6.32;;;43.70;44.30;;;;;;5030365;28;20107;-82
2022/06/26 10:00:37;;;;;;;7.00;4.57;;;43.70;44.20;;;;;;5018945;28;20045;-81
2022/06/26 10:08:45;;;;;;;6.03;4.78;;;43.70;43.60;;;;;;5010163;28;20060;-79
2022/06/26 10:11:14;;;;;;;5.00;4.50;;;43.80;43.60;;;;;;5017905;28;20049;-78
2022/06/26 10:13:42;;;;;;;8.35;7.25;;;44.00;42.70;;;;;;5024058;28;20081;-78
2022/06/26 10:16:23;;;;;;;8.00;4.28;;;44.20;43.40;;;;;;5018415;28;20096;-79
2022/06/26 10:19:14;;;;;;;9.68;7.65;;;44.20;43.10;;;;;;5020125;28;20057;-78
2022/06/26 10:21:42;;;;;;;7.35;4.00;;;44.40;43.20;;;;;;5025759;28;20492;-77
2022/06/26 10:24:09;;;;;;;7.18;3.45;;;44.40;41.80;;;;;;5023526;28;20091;-79
2022/06/26 10:26:38;;;;;;;5.78;3.85;;;44.50;42.30;;;;;;5030656;28;20460;-78
2022/06/26 10:29:09;;;;;;;4.68;3.50;;;44.50;41.90;;;;;;5032288;28;20145;-78
2022/06/26 10:31:47;;;;;;;6.45;3.70;;;44.60;41.50;;;;;;5032259;28;20445;-78
2022/06/26 10:34:16;;;;;;;4.80;3.90;;;44.50;39.40;;;;;;5001692;28;20042;-80
2022/06/26 10:36:45;;;;;;;5.38;3.60;;;44.40;40.50;;;;;;5025863;28;20456;-81
2022/06/26 10:39:12;;;;;;;4.15;3.70;;;44.50;41.30;;;;;;5028423;28;20061;-80
2022/06/26 10:44:38;;;;;;;6.93;3.60;;;44.60;40.10;;;;;;5030467;28;20593;-80
2022/06/26 10:47:14;;;;;;;8.65;4.00;;;44.80;40.40;;;;;;5030602;28;20079;-80
2022/06/26 10:49:50;;;;;;;6.00;3.90;;;44.70;39.40;;;;;;5031991;28;20098;-80
2022/06/26 10:52:27;;;;;;;5.70;4.40;;;44.70;40.50;;;;;;5030473;28;20053;-82
2022/06/26 10:54:59;;;;;;;13.20;4.07;;;44.90;41.00;;;;;;5031564;28;20060;-81
2022/06/26 10:57:40;;;;;;;4.40;3.40;;;44.90;40.30;;;;;;5031500;28;20057;-81
2022/06/26 11:00:31;;;;;;;5.47;4.18;;;45.20;40.50;;;;;;5030003;28;20049;-81
2022/06/26 11:03:13;;;;;;;6.40;3.70;;;45.30;39.20;;;;;;5031442;28;20072;-82
2022/06/26 11:05:50;;;;;;;12.00;4.10;;;45.60;39.50;;;;;;5024928;28;20369;-78
2022/06/26 11:08:24;;;;;;;7.00;3.95;;;45.60;39.00;;;;;;5016596;28;20514;-77
2022/06/26 11:10:52;;;;;;;3.63;3.33;;;45.60;39.30;;;;;;5024174;28;20085;-77
2022/06/26 11:13:20;;;;;;;6.07;2.97;;;45.60;39.50;;;;;;5029588;28;20391;-77
2022/06/26 11:15:48;;;;;;;7.78;3.70;;;45.60;39.00;;;;;;5010368;28;20085;-78
2022/06/26 11:18:15;;;;;;;6.22;3.45;;;45.60;38.30;;;;;;5024092;28;20048;-78
2022/06/26 11:20:47;;;;;;;7.38;4.68;;;45.70;39.10;;;;;;5011228;28;20398;-79
2022/06/26 11:23:20;;;;;;;9.25;3.58;;;45.80;38.20;;;;;;5021834;28;20086;-80
2022/06/26 11:25:50;;;;;;;5.53;4.45;;;46.00;38.40;;;;;;5006220;28;20104;-80
2022/06/26 11:28:18;;;;;;;4.63;2.50;;;46.10;38.00;;;;;;4993326;28;20045;-79
2022/06/26 11:30:48;;;;;;;3.45;2.70;;;46.20;37.40;;;;;;5009762;28;20081;-78
2022/06/26 11:33:25;;;;;;;4.80;3.38;;;46.20;37.50;;;;;;5021619;28;20405;-79
2022/06/26 11:35:53;;;;;;;6.22;3.15;;;46.40;36.60;;;;;;5030708;28;20045;-79
2022/06/26 11:38:21;;;;;;;5.05;3.08;;;46.40;35.40;;;;;;5021631;28;20077;-79
2022/06/26 11:40:50;;;;;;;4.82;3.08;;;46.40;36.70;;;;;;5025836;28;20049;-77
2022/06/26 11:43:20;;;;;;;2.88;2.67;;;46.40;35.70;;;;;;5030640;28;20053;-77
2022/06/26 11:45:52;;;;;;;5.00;2.50;;;46.20;36.30;;;;;;5030416;28;20041;-79
2022/06/26 11:48:20;;;;;;;3.70;2.72;;;46.20;36.60;;;;;;5029359;28;20065;-76
2022/06/26 11:50:52;;;;;;;12.38;4.03;;;46.40;35.50;;;;;;5030717;28;20077;-78
2022/06/26 11:53:24;;;;;;;3.42;2.60;;;46.60;35.70;;;;;;5028899;28;20505;-78
2022/06/26 11:55:54;;;;;;;6.25;2.42;;;46.70;35.10;;;;;;5030439;28;20087;-77
2022/06/26 11:58:24;;;;;;;6.32;2.35;;;46.80;34.20;;;;;;4999040;28;20058;-77
2022/06/26 12:01:03;;;;;;;2.72;2.53;;;46.70;34.60;;;;;;5011129;28;20498;-78
2022/06/26 12:03:31;;;;;;;6.93;2.67;;;46.70;34.60;;;;;;5010906;28;20057;-78
2022/06/26 12:05:58;;;;;;;3.58;2.45;;;46.70;34.60;;;;;;5010911;28;20804;-77
2022/06/26 12:08:26;;;;;;;2.17;1.92;;;46.70;34.50;;;;;;5010454;28;20042;-78
2022/06/26 12:10:54;;;;;;;2.72;2.17;;;46.70;34.40;;;;;;5010658;28;20050;-79
2022/06/26 12:13:23;;;;;;;2.47;2.28;;;46.80;35.00;;;;;;5013935;28;20046;-77
2022/06/26 12:15:52;;;;;;;2.55;2.38;;;46.80;34.40;;;;;;5022816;28;20128;-79
2022/06/26 12:18:19;;;;;;;3.35;3.05;;;46.90;35.10;;;;;;5013439;28;20046;-79
2022/06/26 12:20:52;;;;;;;5.63;3.20;;;46.90;34.00;;;;;;5010335;28;20046;-77
2022/06/26 12:23:31;;;;;;;3.80;2.15;;;46.90;33.60;;;;;;5026368;28;20513;-76
2022/06/26 12:26:06;;;;;;;3.88;2.33;;;46.80;34.60;;;;;;5028841;28;20056;-77
2022/06/26 12:28:33;;;;;;;3.30;3.10;;;46.90;34.50;;;;;;5019866;28;20064;-77
2022/06/26 12:31:02;;;;;;;5.80;2.20;;;46.80;35.20;;;;;;5032738;28;20061;-78
2022/06/26 12:33:29;;;;;;;3.33;2.20;;;46.70;33.70;;;;;;5030439;28;20425;-78
2022/06/26 12:35:57;;;;;;;3.58;2.13;;;46.90;34.30;;;;;;5014205;28;20049;-76
2022/06/26 12:38:27;;;;;;;4.30;2.10;;;47.10;33.30;;;;;;5023862;28;20049;-78
2022/06/26 12:40:55;;;;;;;;;;;47.10;33.30;;;;;;5034605;28;20046;-78
2022/06/26 12:43:22;;;;;;;3.58;1.95;;;47.10;32.90;;;;;;5032941;28;19929;-77
2022/06/26 12:45:49;;;;;;;3.50;2.65;;;47.00;33.60;;;;;;5033931;28;20042;-78
2022/06/26 12:48:18;;;;;;;2.63;2.42;;;46.90;33.10;;;;;;5034096;28;20045;-79
2022/06/26 12:50:45;;;;;;;5.85;2.15;;;46.80;32.80;;;;;;5034142;28;20049;-81
2022/06/26 12:53:13;;;;;;;6.38;2.13;;;46.70;33.80;;;;;;5032975;28;20046;-81
2022/06/26 12:55:40;;;;;;;7.25;2.05;;;46.90;33.40;;;;;;5033979;28;20060;-80
2022/06/26 12:58:07;;;;;;;3.47;1.90;;;47.00;33.90;;;;;;5034208;28;20562;-82
2022/06/26 13:00:35;;;;;;;6.40;1.90;;;47.10;33.50;;;;;;5032307;28;20106;-80
2022/06/26 13:03:02;;;;;;;1.95;1.77;;;47.40;32.50;;;;;;5033901;28;20052;-81
2022/06/26 13:05:31;;;;;;;2.67;1.95;;;47.20;31.90;;;;;;5015982;28;20139;-81
2022/06/26 13:07:58;;;;;;;4.80;1.88;;;47.00;32.50;;;;;;5028573;28;20056;-82
2022/06/26 13:10:25;;;;;;;2.95;2.10;;;47.00;32.70;;;;;;5024041;28;20076;-82
2022/06/26 13:12:53;;;;;;;3.40;1.90;;;46.90;32.50;;;;;;5024507;28;20065;-82